Aérodrome :
LOGIN :

S'inscrire | Disclaimer

   EN    FR    IT 

 










Légende :    VFR   VFR Marginal   IFR   IFR Intensif   IFR Très Intensif
Visi : 
Plafond : 
>= 8 km
>= 3000ft
5 à 8 km
1000 à 3000 ft
1500m à 5 km
500 à 1000 ft
800 à 1500m
200 à 500 ft
< 800m
< 200 ft
Symboles :   Orages  Brouillard  Fortes neiges  Fortes précipitations  Vent > 20 kt
SIGMETs :   Divers  Orages  Givrage  Turbulence  Onde Orograph.  Cendres Volcan.







- Altitude de l'aérodrome : 162 ft
- Code IATA : BOD
- Voir les cartes d'approche


LFBD - Bordeaux / Merignac

DERNIER METAR :
  • 251800Z AUTO 36014KT 9999 OVC013 11/08 Q1009 TEMPO 4000 RA BKN004 OVC030

METARs EXPIRÉS :
  • 251730Z AUTO 36013KT 9999 SCT013 BKN021 OVC031 11/08 Q1009 TEMPO 4000 RA BKN004 OVC030
  • 251700Z AUTO 01011KT 9999 -RA SCT021 OVC028 12/08 Q1008 TEMPO 4000 RA BKN004 OVC030
  • 251630Z AUTO 01010KT 9999 BKN024 BKN030 BKN066 13/08 Q1008 TEMPO 4000 RA BKN004 OVC030
  • 251600Z AUTO 02011KT CAVOK 13/08 Q1008 TEMPO 4000 RA BKN004 OVC030
  • 251530Z AUTO 36013KT 9999 FEW034 BKN080 BKN120 13/08 Q1008 TEMPO 4000 RA BKN004 OVC030

TAF TAF LFBD
Valide du 25 à 18h jusqu'au 27 à 00h UTC


251700Z 2518/2624 35008KT 9999 OVC040
TEMPO 2518/2522 36010G20KT 4000 RA BKN004 OVC030
TEMPO 2522/2524 BKN008
BECMG 2606/2608 BKN020
BECMG 2612/2614 CAVOK
TEMPO 2614/2618 35015G25KT SCT025TCU TX13/2614Z TN05/2603Z
ATIS : +33 5 57 92 81 04
Pas de NOTAMs connus pour ce terrain.



MET'MAP, la Météo Aéronautique d'un coup d'oeil ! - Copyright ORBIFLY Décembre 2007 - Disclaimer

ORBIFLY MET'MAP TEAM :

Programmation & Développement : Alexandra Zaïnal
Conception & Développement : Baudouin d'Aumeries
Co-Programmation & Développement : Marc-Olivier Méhu
Soutien technique & logistique : Manuel Goepfert

Contact : metmap@orbifly.com




SOURCES & CREDITS :

   NOAA